Time;durP1;ratioP1;P1;durP2;ratioP2;P2;SDS_P1;SDS_P2;PMS_P1;PMS_P2;Temp;Humidity;BMP_temperature;BMP_pressure;BME280_temperature;BME280_humidity;BME280_pressure;Samples;Min_cycle;Max_cycle;Signal;HPM_P1;HPM_P2
2022/11/03 00:01:49;;;;;;;;;0.00;0.00;;;;;;;;5193882;28;8816;-76
2022/11/03 00:04:21;;;;;;;;;1.00;1.00;;;;;;;;5188018;28;8779;-75
2022/11/03 00:06:53;;;;;;;;;2.80;2.80;;;;;;;;5206344;28;8825;-75
2022/11/03 00:09:27;;;;;;;;;2.00;2.00;;;;;;;;5222324;28;9544;-75
2022/11/03 00:12:00;;;;;;;;;0.00;0.00;;;;;;;;5205613;28;8809;-75
2022/11/03 00:14:31;;;;;;;;;2.00;2.00;;;;;;;;5178633;28;8897;-75
2022/11/03 00:17:03;;;;;;;;;0.40;0.40;;;;;;;;5165124;28;8836;-74
2022/11/03 00:19:34;;;;;;;;;4.00;4.00;;;;;;;;5148725;28;8861;-73
2022/11/03 00:22:05;;;;;;;;;11.00;10.40;;;;;;;;5186606;28;8822;-73
2022/11/03 00:24:54;;;;;;;;;1.00;1.00;;;;;;;;5222285;28;8901;-73
2022/11/03 00:27:25;;;;;;;;;15.20;14.20;;;;;;;;5221771;27;8873;-72
2022/11/03 00:30:14;;;;;;;;;0.60;0.60;;;;;;;;5208157;28;8806;-73
2022/11/03 00:33:04;;;;;;;;;3.20;2.00;;;;;;;;5220585;28;8801;-73
2022/11/03 00:35:35;;;;;;;;;1.60;1.60;;;;;;;;5205532;28;8805;-74
2022/11/03 00:38:06;;;;;;;;;11.40;11.00;;;;;;;;5221471;28;8787;-74
2022/11/03 00:40:57;;;;;;;;;13.60;13.60;;;;;;;;5218508;28;8783;-75
2022/11/03 00:43:29;;;;;;;;;5.20;5.20;;;;;;;;5183838;28;8817;-76
2022/11/03 00:46:00;;;;;;;;;2.00;2.00;;;;;;;;5184580;28;8797;-75
2022/11/03 00:48:50;;;;;;;;;2.40;2.40;;;;;;;;5200462;28;8900;-74
2022/11/03 00:51:30;;;;;;;;;5.40;5.40;;;;;;;;5184025;28;8836;-74
2022/11/03 00:54:02;;;;;;;;;5.80;5.80;;;;;;;;5184347;28;8789;-76
2022/11/03 00:56:34;;;;;;;;;0.00;0.00;;;;;;;;5211865;28;8906;-76
2022/11/03 00:59:06;;;;;;;;;0.00;0.00;;;;;;;;5220931;27;8782;-75
2022/11/03 01:01:42;;;;;;;;;1.00;1.00;;;;;;;;5171167;28;8816;-75
2022/11/03 01:07:04;;;;;;;;;0.80;0.80;;;;;;;;5200352;28;8785;-75
2022/11/03 01:09:40;;;;;;;;;1.00;1.00;;;;;;;;5183923;28;8781;-74
2022/11/03 01:12:13;;;;;;;;;0.00;0.00;;;;;;;;5184019;28;8809;-74
2022/11/03 01:14:44;;;;;;;;;1.00;1.00;;;;;;;;5169013;28;8781;-75
2022/11/03 01:17:19;;;;;;;;;0.00;0.00;;;;;;;;5200963;28;8838;-75
2022/11/03 01:19:51;;;;;;;;;0.00;0.00;;;;;;;;5218036;28;8811;-77
2022/11/03 01:22:23;;;;;;;;;0.00;0.00;;;;;;;;5180500;28;8839;-72
2022/11/03 01:24:54;;;;;;;;;0.00;0.00;;;;;;;;5180330;28;8795;-73
2022/11/03 01:27:44;;;;;;;;;0.80;0.80;;;;;;;;5180527;28;8865;-73
2022/11/03 01:30:15;;;;;;;;;6.60;6.60;;;;;;;;5147865;28;8769;-72
2022/11/03 01:32:46;;;;;;;;;1.40;1.40;;;;;;;;5164071;28;8791;-72
2022/11/03 01:35:36;;;;;;;;;1.60;1.60;;;;;;;;5191798;28;9608;-77
2022/11/03 01:38:25;;;;;;;;;2.00;2.00;;;;;;;;5193734;28;8805;-75
2022/11/03 01:40:57;;;;;;;;;0.00;0.00;;;;;;;;5183936;28;8912;-75
2022/11/03 01:43:30;;;;;;;;;0.00;0.00;;;;;;;;5167232;28;8875;-75
2022/11/03 01:46:22;;;;;;;;;0.40;0.40;;;;;;;;5169983;28;9518;-74
2022/11/03 01:48:59;;;;;;;;;0.00;0.00;;;;;;;;5167760;28;8783;-74
2022/11/03 01:51:51;;;;;;;;;0.00;0.00;;;;;;;;5183545;28;8815;-74
2022/11/03 01:54:23;;;;;;;;;0.60;0.60;;;;;;;;5183808;28;8820;-74
2022/11/03 01:57:17;;;;;;;;;6.00;6.00;;;;;;;;5183540;28;8849;-74
2022/11/03 01:59:49;;;;;;;;;4.00;4.00;;;;;;;;5216712;28;8783;-74
2022/11/03 02:02:27;;;;;;;;;2.00;2.00;;;;;;;;5207745;28;9595;-74
2022/11/03 02:05:00;;;;;;;;;0.00;0.00;;;;;;;;5189549;28;8809;-74
2022/11/03 02:07:52;;;;;;;;;1.40;1.40;;;;;;;;5208182;28;8933;-73
2022/11/03 02:10:24;;;;;;;;;0.00;0.00;;;;;;;;5191652;28;8805;-74
2022/11/03 02:12:55;;;;;;;;;1.00;1.00;;;;;;;;5207584;28;8779;-74
2022/11/03 02:15:27;;;;;;;;;1.20;1.20;;;;;;;;5207464;28;8847;-74
2022/11/03 02:17:59;;;;;;;;;0.20;0.20;;;;;;;;5205271;28;8818;-73
2022/11/03 02:20:31;;;;;;;;;1.00;1.00;;;;;;;;5185964;28;8803;-74
2022/11/03 02:23:25;;;;;;;;;1.60;1.60;;;;;;;;5207246;28;8830;-74
2022/11/03 02:25:57;;;;;;;;;1.60;1.60;;;;;;;;5224387;28;8783;-73
2022/11/03 02:28:30;;;;;;;;;2.80;2.80;;;;;;;;5207321;28;8782;-75
2022/11/03 02:31:10;;;;;;;;;1.00;1.00;;;;;;;;5212059;27;8790;-74
2022/11/03 02:33:47;;;;;;;;;1.00;1.00;;;;;;;;5185748;28;8783;-74
2022/11/03 02:36:21;;;;;;;;;1.00;1.00;;;;;;;;5222073;28;8782;-74
2022/11/03 02:39:01;;;;;;;;;5.20;5.20;;;;;;;;5221458;28;8940;-74
2022/11/03 02:41:34;;;;;;;;;6.00;6.00;;;;;;;;5204286;28;8800;-74
2022/11/03 02:44:07;;;;;;;;;0.00;0.00;;;;;;;;5203022;28;8808;-72
2022/11/03 02:46:40;;;;;;;;;3.20;2.00;;;;;;;;5202763;28;8781;-74
2022/11/03 02:49:11;;;;;;;;;1.00;1.00;;;;;;;;5203316;28;8786;-75
2022/11/03 02:51:42;;;;;;;;;1.00;1.00;;;;;;;;5197336;28;8821;-76
2022/11/03 02:54:24;;;;;;;;;1.60;1.60;;;;;;;;5196894;28;8791;-76
2022/11/03 02:57:03;;;;;;;;;1.00;1.00;;;;;;;;5182246;28;8791;-76
2022/11/03 02:59:39;;;;;;;;;1.00;1.00;;;;;;;;5200739;28;8815;-78
2022/11/03 03:02:14;;;;;;;;;0.00;0.00;;;;;;;;5210070;28;8825;-76
2022/11/03 03:05:06;;;;;;;;;0.00;0.00;;;;;;;;5203935;28;8801;-77
2022/11/03 03:07:40;;;;;;;;;0.00;0.00;;;;;;;;5203050;28;8781;-74
2022/11/03 03:10:14;;;;;;;;;0.00;0.00;;;;;;;;5202990;28;8769;-76
2022/11/03 03:12:46;;;;;;;;;0.20;0.20;;;;;;;;5203012;28;8786;-75
2022/11/03 03:15:21;;;;;;;;;0.00;0.00;;;;;;;;5186218;28;8778;-76
2022/11/03 03:17:59;;;;;;;;;25.60;25.00;;;;;;;;5186533;28;8805;-76
2022/11/03 03:20:33;;;;;;;;;0.80;0.80;;;;;;;;5165861;28;8864;-72
2022/11/03 03:23:15;;;;;;;;;0.00;0.00;;;;;;;;5182311;28;8815;-72
2022/11/03 03:25:52;;;;;;;;;0.00;0.00;;;;;;;;5181556;28;8799;-72
2022/11/03 03:28:31;;;;;;;;;6.40;6.40;;;;;;;;5163789;28;8860;-73
2022/11/03 03:31:05;;;;;;;;;0.00;0.00;;;;;;;;5182774;28;8808;-73
2022/11/03 03:33:37;;;;;;;;;0.00;0.00;;;;;;;;5198265;28;8802;-73
2022/11/03 03:36:28;;;;;;;;;0.00;0.00;;;;;;;;5181433;28;8864;-73
2022/11/03 03:39:01;;;;;;;;;0.00;0.00;;;;;;;;5204796;28;9553;-73
2022/11/03 03:41:33;;;;;;;;;0.00;0.00;;;;;;;;5223050;28;8937;-73
2022/11/03 03:44:07;;;;;;;;;0.60;0.60;;;;;;;;5223945;27;8764;-73
2022/11/03 03:46:43;;;;;;;;;1.00;1.00;;;;;;;;5222712;28;9581;-73
2022/11/03 03:49:14;;;;;;;;;0.00;0.00;;;;;;;;5222544;28;8925;-74
2022/11/03 03:52:04;;;;;;;;;1.00;1.00;;;;;;;;5222224;28;8767;-75
2022/11/03 03:54:54;;;;;;;;;1.00;1.00;;;;;;;;5222794;28;8767;-75
2022/11/03 03:57:27;;;;;;;;;2.00;2.00;;;;;;;;5220569;28;8786;-75
2022/11/03 03:59:58;;;;;;;;;0.60;0.60;;;;;;;;5180727;28;8888;-75
2022/11/03 04:02:30;;;;;;;;;2.60;2.60;;;;;;;;5181995;28;8942;-76
2022/11/03 04:05:00;;;;;;;;;1.00;1.00;;;;;;;;5182359;28;8943;-72
2022/11/03 04:07:50;;;;;;;;;0.00;0.00;;;;;;;;5202808;28;8846;-72
2022/11/03 04:10:22;;;;;;;;;0.00;0.00;;;;;;;;5201193;28;9535;-72
2022/11/03 04:24:29;;;;;;;;;2.60;2.60;;;;;;;;5205514;28;8763;-71
2022/11/03 04:27:04;;;;;;;;;0.00;0.00;;;;;;;;5222982;28;8874;-71
2022/11/03 04:29:35;;;;;;;;;0.00;0.00;;;;;;;;5222998;27;8794;-74
2022/11/03 04:32:13;;;;;;;;;2.60;2.60;;;;;;;;5219219;28;8775;-74
2022/11/03 04:34:45;;;;;;;;;2.00;2.00;;;;;;;;5201921;28;8845;-74
2022/11/03 04:37:34;;;;;;;;;4.60;4.60;;;;;;;;5187502;28;8758;-74
2022/11/03 04:40:12;;;;;;;;;8.60;8.60;;;;;;;;5201197;28;8790;-74
2022/11/03 04:42:44;;;;;;;;;2.00;2.00;;;;;;;;5200955;28;8817;-74
2022/11/03 04:45:20;;;;;;;;;0.00;0.00;;;;;;;;5202487;28;8790;-74
2022/11/03 04:47:51;;;;;;;;;1.80;1.80;;;;;;;;5215954;28;8813;-74
2022/11/03 04:50:41;;;;;;;;;1.00;1.00;;;;;;;;5222982;28;8775;-74
2022/11/03 04:53:13;;;;;;;;;1.00;1.00;;;;;;;;5221121;27;8844;-74
2022/11/03 04:56:12;;;;;;;;;2.00;1.00;;;;;;;;5222790;28;8830;-74
2022/11/03 04:58:43;;;;;;;;;1.20;1.20;;;;;;;;5221810;28;8787;-74
2022/11/03 05:01:17;;;;;;;;;2.00;2.00;;;;;;;;5204530;27;8821;-70
2022/11/03 05:04:17;;;;;;;;;2.00;2.00;;;;;;;;5205927;28;8773;-69
2022/11/03 05:06:50;;;;;;;;;3.80;3.80;;;;;;;;5188684;28;8787;-68
2022/11/03 05:09:29;;;;;;;;;1.00;1.00;;;;;;;;5200894;28;8791;-69
2022/11/03 05:12:00;;;;;;;;;1.20;1.20;;;;;;;;5200088;28;8870;-70
2022/11/03 05:14:32;;;;;;;;;35.00;34.00;;;;;;;;5178773;28;8818;-75
2022/11/03 05:17:21;;;;;;;;;22.60;22.60;;;;;;;;5178804;28;8799;-77
2022/11/03 05:19:57;;;;;;;;;5.40;5.00;;;;;;;;5178504;28;8854;-77
2022/11/03 05:22:33;;;;;;;;;0.40;0.40;;;;;;;;5180236;28;8820;-77
2022/11/03 05:25:40;;;;;;;;;5.00;5.00;;;;;;;;5166323;28;8801;-75
2022/11/03 05:28:19;;;;;;;;;5.60;5.20;;;;;;;;5215739;28;8900;-76
2022/11/03 05:30:52;;;;;;;;;3.20;3.20;;;;;;;;5192135;28;8865;-76
2022/11/03 05:33:24;;;;;;;;;2.40;2.40;;;;;;;;5167633;28;8819;-76
2022/11/03 05:35:58;;;;;;;;;5.80;5.80;;;;;;;;5184629;28;8835;-77
2022/11/03 05:38:31;;;;;;;;;0.20;0.20;;;;;;;;5168135;28;8783;-76
2022/11/03 05:41:04;;;;;;;;;4.40;4.00;;;;;;;;5167913;28;8799;-77
2022/11/03 05:43:36;;;;;;;;;13.60;13.60;;;;;;;;5167720;28;8814;-75
2022/11/03 05:46:10;;;;;;;;;5.00;5.00;;;;;;;;5180476;28;8902;-74
2022/11/03 05:48:45;;;;;;;;;8.00;8.00;;;;;;;;5179142;28;8787;-75
2022/11/03 05:51:28;;;;;;;;;4.20;4.20;;;;;;;;5204127;28;8779;-76
2022/11/03 05:54:02;;;;;;;;;3.20;3.20;;;;;;;;5188199;28;8795;-75
2022/11/03 05:56:53;;;;;;;;;4.00;4.00;;;;;;;;5207015;28;8798;-74
2022/11/03 05:59:45;;;;;;;;;3.80;3.80;;;;;;;;5208416;28;8790;-75
2022/11/03 06:02:37;;;;;;;;;4.60;4.60;;;;;;;;5218646;28;8802;-77
2022/11/03 06:05:17;;;;;;;;;8.60;8.60;;;;;;;;5179741;28;8819;-75
2022/11/03 06:07:50;;;;;;;;;6.00;6.00;;;;;;;;5192170;28;9526;-75
2022/11/03 06:10:35;;;;;;;;;8.60;8.60;;;;;;;;5204197;28;8783;-75
2022/11/03 06:13:19;;;;;;;;;5.20;5.20;;;;;;;;5204683;28;8799;-74
2022/11/03 06:15:57;;;;;;;;;4.80;4.80;;;;;;;;5187946;28;8798;-76
2022/11/03 06:18:36;;;;;;;;;7.80;7.80;;;;;;;;5220455;28;8826;-75
2022/11/03 06:21:20;;;;;;;;;2.80;2.80;;;;;;;;5223709;28;8767;-75
2022/11/03 06:24:13;;;;;;;;;5.40;5.40;;;;;;;;5209746;28;8942;-77
2022/11/03 06:26:46;;;;;;;;;4.00;4.00;;;;;;;;5193682;28;8816;-73
2022/11/03 06:29:19;;;;;;;;;9.80;9.80;;;;;;;;5167044;28;9481;-75
2022/11/03 06:31:53;;;;;;;;;4.80;4.80;;;;;;;;5150647;28;8799;-75
2022/11/03 06:34:34;;;;;;;;;0.00;0.00;;;;;;;;5166299;28;9661;-75
2022/11/03 06:37:19;;;;;;;;;1.00;1.00;;;;;;;;5168143;28;8772;-75
2022/11/03 06:39:58;;;;;;;;;2.80;2.80;;;;;;;;5166666;28;8811;-75
2022/11/03 06:42:34;;;;;;;;;4.40;4.40;;;;;;;;5171796;28;8807;-76
2022/11/03 06:45:13;;;;;;;;;5.40;5.40;;;;;;;;5216287;28;9476;-74
2022/11/03 06:47:45;;;;;;;;;2.00;2.00;;;;;;;;5197332;28;8788;-76
2022/11/03 06:50:19;;;;;;;;;5.00;5.00;;;;;;;;5203145;28;8842;-74
2022/11/03 06:52:52;;;;;;;;;4.40;4.40;;;;;;;;5186597;28;8773;-76
2022/11/03 06:55:23;;;;;;;;;7.20;7.20;;;;;;;;5170354;28;8904;-76
2022/11/03 06:58:01;;;;;;;;;2.60;2.60;;;;;;;;5170470;28;8785;-75
2022/11/03 07:00:36;;;;;;;;;1.00;1.00;;;;;;;;5186499;28;8782;-70
2022/11/03 07:03:23;;;;;;;;;1.00;1.00;;;;;;;;5191892;28;8828;-68
2022/11/03 07:05:59;;;;;;;;;4.60;4.60;;;;;;;;5183524;28;8784;-69
2022/11/03 07:08:36;;;;;;;;;22.80;22.60;;;;;;;;5182180;28;8788;-69
2022/11/03 07:11:10;;;;;;;;;2.00;2.00;;;;;;;;5182818;28;8799;-69
2022/11/03 07:13:42;;;;;;;;;0.40;0.00;;;;;;;;5182301;28;8788;-69
2022/11/03 07:16:34;;;;;;;;;5.60;5.20;;;;;;;;5183494;28;8816;-69
2022/11/03 07:19:11;;;;;;;;;9.00;9.00;;;;;;;;5194351;28;8815;-68
2022/11/03 07:21:47;;;;;;;;;7.80;7.80;;;;;;;;5190616;28;9592;-68
2022/11/03 07:24:45;;;;;;;;;6.00;6.00;;;;;;;;5187383;28;8784;-70
2022/11/03 07:27:19;;;;;;;;;2.20;2.20;;;;;;;;5178903;28;8776;-69
2022/11/03 07:29:51;;;;;;;;;6.80;6.00;;;;;;;;5191472;28;8816;-69
2022/11/03 07:32:28;;;;;;;;;5.00;5.00;;;;;;;;5201058;28;9452;-69
2022/11/03 07:35:03;;;;;;;;;0.40;0.40;;;;;;;;5169736;28;8800;-69
2022/11/03 07:37:34;;;;;;;;;4.80;4.80;;;;;;;;5202409;28;9543;-78
2022/11/03 07:40:12;;;;;;;;;1.00;1.00;;;;;;;;5170049;28;8809;-73
2022/11/03 07:42:44;;;;;;;;;3.20;3.20;;;;;;;;5188237;28;8873;-78
2022/11/03 07:45:34;;;;;;;;;0.20;0.20;;;;;;;;5206045;28;8798;-76
2022/11/03 07:48:28;;;;;;;;;1.00;1.00;;;;;;;;5208674;28;8795;-75
2022/11/03 07:51:05;;;;;;;;;0.00;0.00;;;;;;;;5190048;28;8806;-76
2022/11/03 07:53:45;;;;;;;;;2.60;2.60;;;;;;;;5208093;28;8887;-76
2022/11/03 07:56:17;;;;;;;;;0.00;0.00;;;;;;;;5206573;28;8795;-76
2022/11/03 07:59:00;;;;;;;;;0.00;0.00;;;;;;;;5179431;28;8837;-75
2022/11/03 08:01:35;;;;;;;;;0.40;0.40;;;;;;;;5179952;28;8808;-78
2022/11/03 08:04:34;;;;;;;;;1.40;1.40;;;;;;;;5199038;28;8827;-73
2022/11/03 08:07:05;;;;;;;;;0.00;0.00;;;;;;;;5221536;27;8795;-75
2022/11/03 08:09:54;;;;;;;;;0.00;0.00;;;;;;;;5187682;28;8831;-77
2022/11/03 08:12:25;;;;;;;;;0.00;0.00;;;;;;;;5163148;28;8861;-75
2022/11/03 08:14:56;;;;;;;;;0.00;0.00;;;;;;;;5165961;28;8845;-78
2022/11/03 08:17:27;;;;;;;;;36.00;32.50;;;;;;;;5183875;28;8815;-75
2022/11/03 08:20:00;;;;;;;;;4.80;4.80;;;;;;;;5168572;28;9687;-75
2022/11/03 08:22:31;;;;;;;;;2.00;2.00;;;;;;;;5169462;28;8849;-76
2022/11/03 08:25:02;;;;;;;;;5.40;5.40;;;;;;;;5169180;28;8783;-75
2022/11/03 08:27:33;;;;;;;;;1.80;1.80;;;;;;;;5185011;28;8842;-74
2022/11/03 08:30:05;;;;;;;;;4.20;4.20;;;;;;;;5168910;28;8780;-77
2022/11/03 08:32:54;;;;;;;;;4.00;4.00;;;;;;;;5187516;28;8795;-77
2022/11/03 08:35:44;;;;;;;;;0.00;0.00;;;;;;;;5187559;28;8791;-70
2022/11/03 08:38:15;;;;;;;;;2.60;2.60;;;;;;;;5184694;28;8775;-78
2022/11/03 08:40:46;;;;;;;;;0.00;0.00;;;;;;;;5168817;28;8915;-76
2022/11/03 08:43:35;;;;;;;;;2.00;2.00;;;;;;;;5187209;28;8978;-77
2022/11/03 08:46:07;;;;;;;;;1.00;1.00;;;;;;;;5201218;28;8780;-77
2022/11/03 08:48:38;;;;;;;;;1.00;1.00;;;;;;;;5168351;28;8787;-77
2022/11/03 08:51:12;;;;;;;;;0.00;0.00;;;;;;;;5168876;28;8848;-73
2022/11/03 08:53:43;;;;;;;;;1.00;1.00;;;;;;;;5168568;28;8811;-77
2022/11/03 08:56:14;;;;;;;;;4.60;4.60;;;;;;;;5168599;28;8802;-77
2022/11/03 08:59:03;;;;;;;;;2.00;2.00;;;;;;;;5186852;28;8823;-74
2022/11/03 09:01:52;;;;;;;;;6.00;6.00;;;;;;;;5187545;28;8935;-78
2022/11/03 09:04:23;;;;;;;;;0.00;0.00;;;;;;;;5168741;28;8950;-77
2022/11/03 09:06:54;;;;;;;;;0.00;0.00;;;;;;;;5168184;28;8787;-69
2022/11/03 09:09:25;;;;;;;;;0.00;0.00;;;;;;;;5184350;28;8783;-71
2022/11/03 09:11:56;;;;;;;;;8.75;8.75;;;;;;;;5184829;28;12135;-70
2022/11/03 09:14:27;;;;;;;;;1.00;1.00;;;;;;;;5202044;28;8787;-71
2022/11/03 09:16:58;;;;;;;;;1.75;1.75;;;;;;;;5184238;28;11030;-71
2022/11/03 09:19:29;;;;;;;;;2.00;2.00;;;;;;;;5200658;28;11567;-70
2022/11/03 09:22:00;;;;;;;;;0.00;0.00;;;;;;;;5201799;28;8803;-71
2022/11/03 09:24:31;;;;;;;;;0.80;0.80;;;;;;;;5202110;28;8816;-69
2022/11/03 09:27:03;;;;;;;;;0.00;0.00;;;;;;;;5184000;28;8778;-70
2022/11/03 09:29:34;;;;;;;;;4.00;4.00;;;;;;;;5200716;28;8775;-71
2022/11/03 09:32:05;;;;;;;;;0.00;0.00;;;;;;;;5200816;28;8802;-71
2022/11/03 09:34:36;;;;;;;;;0.00;0.00;;;;;;;;5200496;28;8826;-69
2022/11/03 09:37:07;;;;;;;;;1.00;1.00;;;;;;;;5201689;28;8775;-70
2022/11/03 09:39:38;;;;;;;;;0.00;0.00;;;;;;;;5184344;28;9682;-70
2022/11/03 09:42:10;;;;;;;;;0.00;0.00;;;;;;;;5201607;28;9572;-69
2022/11/03 09:44:41;;;;;;;;;1.80;1.80;;;;;;;;5200367;28;8794;-71
2022/11/03 09:47:18;;;;;;;;;6.00;6.00;;;;;;;;5184219;28;9390;-69
2022/11/03 09:50:13;;;;;;;;;0.80;0.80;;;;;;;;5200466;28;8771;-70
2022/11/03 09:52:45;;;;;;;;;1.60;1.60;;;;;;;;5200585;28;8779;-70
2022/11/03 09:55:34;;;;;;;;;4.00;4.00;;;;;;;;5202228;28;8783;-70
2022/11/03 09:58:15;;;;;;;;;0.00;0.00;;;;;;;;5203896;28;8771;-70
2022/11/03 10:00:46;;;;;;;;;1.00;1.00;;;;;;;;5187305;28;8763;-70
2022/11/03 10:03:19;;;;;;;;;1.00;1.00;;;;;;;;5187267;28;8883;-70
2022/11/03 10:05:50;;;;;;;;;3.40;3.40;;;;;;;;5204676;28;8814;-70
2022/11/03 10:08:26;;;;;;;;;1.20;1.20;;;;;;;;5205308;28;8786;-69
2022/11/03 10:10:58;;;;;;;;;4.20;4.20;;;;;;;;5187220;28;8825;-70
2022/11/03 10:13:51;;;;;;;;;1.40;1.40;;;;;;;;5204874;28;8802;-70
2022/11/03 10:16:23;;;;;;;;;1.00;1.00;;;;;;;;5204910;28;8844;-69
2022/11/03 10:18:54;;;;;;;;;3.60;3.60;;;;;;;;5204401;28;8811;-70
2022/11/03 10:21:29;;;;;;;;;5.00;5.00;;;;;;;;5171033;28;8779;-70
2022/11/03 10:24:00;;;;;;;;;3.20;3.20;;;;;;;;5203251;28;9579;-70
2022/11/03 10:26:42;;;;;;;;;2.00;2.00;;;;;;;;5203306;28;8783;-70
2022/11/03 10:29:20;;;;;;;;;1.00;1.00;;;;;;;;5186713;28;8802;-70
2022/11/03 10:31:53;;;;;;;;;2.00;2.00;;;;;;;;5204690;28;8779;-70
2022/11/03 10:34:24;;;;;;;;;3.60;3.00;;;;;;;;5203092;28;8791;-70
2022/11/03 10:37:19;;;;;;;;;6.00;5.25;;;;;;;;5186856;28;8839;-70
2022/11/03 10:39:51;;;;;;;;;0.00;0.00;;;;;;;;5186569;28;10870;-70
2022/11/03 10:42:22;;;;;;;;;5.80;5.80;;;;;;;;5203307;28;8861;-69
2022/11/03 10:44:54;;;;;;;;;1.40;1.00;;;;;;;;5186726;28;8811;-70
2022/11/03 10:47:31;;;;;;;;;2.80;2.80;;;;;;;;5204104;28;8909;-70
2022/11/03 10:50:24;;;;;;;;;2.60;2.60;;;;;;;;5203370;28;8802;-70
2022/11/03 10:52:56;;;;;;;;;2.00;2.00;;;;;;;;5203116;28;8867;-70
2022/11/03 10:55:27;;;;;;;;;0.00;0.00;;;;;;;;5186428;28;8964;-70
2022/11/03 10:57:58;;;;;;;;;2.00;2.00;;;;;;;;5203131;28;8917;-70
2022/11/03 11:00:29;;;;;;;;;3.00;3.00;;;;;;;;5203848;28;9510;-70
2022/11/03 11:03:00;;;;;;;;;3.50;3.50;;;;;;;;5186224;28;8807;-70
2022/11/03 11:05:31;;;;;;;;;1.20;1.20;;;;;;;;5202690;28;10240;-70
2022/11/03 11:08:02;;;;;;;;;5.40;5.40;;;;;;;;5175385;28;8798;-71
2022/11/03 11:10:33;;;;;;;;;7.00;7.00;;;;;;;;5189961;28;8822;-69
2022/11/03 11:13:12;;;;;;;;;1.50;1.50;;;;;;;;5182684;28;8825;-70
2022/11/03 11:15:45;;;;;;;;;0.40;0.40;;;;;;;;5166638;28;9824;-71
2022/11/03 11:18:28;;;;;;;;;2.80;2.80;;;;;;;;5174107;28;8812;-71
2022/11/03 11:21:00;;;;;;;;;0.40;0.40;;;;;;;;5180274;28;8788;-71
2022/11/03 11:23:34;;;;;;;;;5.00;5.00;;;;;;;;5202140;28;9535;-76
2022/11/03 11:26:08;;;;;;;;;0.80;0.80;;;;;;;;5170117;28;8783;-75
2022/11/03 11:29:08;;;;;;;;;3.20;3.20;;;;;;;;5188307;28;8803;-77
2022/11/03 11:31:40;;;;;;;;;0.00;0.00;;;;;;;;5169734;28;8817;-75
2022/11/03 11:34:13;;;;;;;;;0.00;0.00;;;;;;;;5169538;28;8817;-77
2022/11/03 11:36:50;;;;;;;;;3.20;3.20;;;;;;;;5199121;28;8807;-77
2022/11/03 11:39:27;;;;;;;;;0.80;0.80;;;;;;;;5190219;28;8872;-78
2022/11/03 11:42:12;;;;;;;;;2.40;2.40;;;;;;;;5191164;28;8895;-77
2022/11/03 11:44:50;;;;;;;;;0.00;0.00;;;;;;;;5191671;28;8906;-76
2022/11/03 11:47:39;;;;;;;;;0.80;0.80;;;;;;;;5212014;28;8909;-77
2022/11/03 11:50:13;;;;;;;;;0.00;0.00;;;;;;;;5191427;28;8798;-76
2022/11/03 11:53:06;;;;;;;;;2.00;2.00;;;;;;;;5208805;28;8790;-77
2022/11/03 11:55:57;;;;;;;;;1.40;1.40;;;;;;;;5208652;28;8774;-78
2022/11/03 11:58:48;;;;;;;;;0.00;0.00;;;;;;;;5203952;28;8794;-77
2022/11/03 12:01:28;;;;;;;;;4.20;4.20;;;;;;;;5205050;28;9514;-77
2022/11/03 12:04:01;;;;;;;;;2.40;2.40;;;;;;;;5185912;28;8942;-77
2022/11/03 12:06:40;;;;;;;;;4.60;4.60;;;;;;;;5202548;28;9525;-75
2022/11/03 12:09:17;;;;;;;;;5.60;5.60;;;;;;;;5189465;28;8802;-74
2022/11/03 12:11:50;;;;;;;;;12.00;11.40;;;;;;;;5166711;28;8796;-75
2022/11/03 12:14:24;;;;;;;;;12.80;12.80;;;;;;;;5165040;28;8776;-77
2022/11/03 12:16:55;;;;;;;;;20.00;13.60;;;;;;;;5164575;28;8790;-78
2022/11/03 12:19:34;;;;;;;;;14.00;14.00;;;;;;;;5164462;28;8792;-75
2022/11/03 12:22:09;;;;;;;;;6.20;6.20;;;;;;;;5188503;28;8806;-77
2022/11/03 12:25:00;;;;;;;;;11.40;11.40;;;;;;;;5187747;28;8962;-74
2022/11/03 12:27:32;;;;;;;;;3.40;3.40;;;;;;;;5201492;28;8773;-77
2022/11/03 12:30:07;;;;;;;;;3.00;3.00;;;;;;;;5168700;28;8790;-74
2022/11/03 12:32:38;;;;;;;;;11.60;11.60;;;;;;;;5201787;28;8789;-76
2022/11/03 12:35:12;;;;;;;;;12.80;12.80;;;;;;;;5191825;28;8801;-74
2022/11/03 12:37:43;;;;;;;;;20.00;20.00;;;;;;;;5221849;28;8786;-76
2022/11/03 12:40:14;;;;;;;;;10.80;10.40;;;;;;;;5218969;27;8827;-75
2022/11/03 12:42:45;;;;;;;;;9.40;9.40;;;;;;;;5168551;28;8813;-76
2022/11/03 12:45:16;;;;;;;;;6.20;5.60;;;;;;;;5168624;28;9528;-75
2022/11/03 12:47:47;;;;;;;;;1.80;1.60;;;;;;;;5168590;28;8801;-75
2022/11/03 12:50:18;;;;;;;;;11.20;11.00;;;;;;;;5168141;28;8785;-75
2022/11/03 12:52:49;;;;;;;;;3.80;3.80;;;;;;;;5168254;28;8770;-75
2022/11/03 12:55:39;;;;;;;;;13.00;12.40;;;;;;;;5190339;28;8859;-76
2022/11/03 12:58:10;;;;;;;;;8.20;8.20;;;;;;;;5188816;28;8789;-75
2022/11/03 13:00:41;;;;;;;;;5.40;5.40;;;;;;;;5177462;28;8881;-75
2022/11/03 13:03:12;;;;;;;;;5.00;5.00;;;;;;;;5148133;28;8831;-73
2022/11/03 13:05:43;;;;;;;;;4.20;4.20;;;;;;;;5164453;28;8780;-73
2022/11/03 13:08:14;;;;;;;;;9.00;9.00;;;;;;;;5183795;28;9523;-74
2022/11/03 13:12:29;;;;;;;;;7.80;7.80;;;;;;;;5166620;28;8811;-74
2022/11/03 13:13:55;;;;;;;;;12.80;12.80;;;;;;;;5164342;28;8810;-75
2022/11/03 13:16:44;;;;;;;;;5.20;5.20;;;;;;;;5200326;28;8827;-71
2022/11/03 13:19:15;;;;;;;;;0.20;0.20;;;;;;;;5217555;27;8894;-78
2022/11/03 13:21:47;;;;;;;;;55.20;48.00;;;;;;;;5171098;28;8911;-76
2022/11/03 13:24:18;;;;;;;;;7.20;7.20;;;;;;;;5168579;28;8804;-77
2022/11/03 13:26:49;;;;;;;;;9.00;9.00;;;;;;;;5152178;28;8807;-69
2022/11/03 13:29:20;;;;;;;;;9.40;9.40;;;;;;;;5180312;28;8788;-70
2022/11/03 13:31:51;;;;;;;;;8.00;8.00;;;;;;;;5185151;28;8833;-70
2022/11/03 13:34:22;;;;;;;;;6.80;6.80;;;;;;;;5183923;28;11450;-69
2022/11/03 13:36:53;;;;;;;;;8.80;8.80;;;;;;;;5183933;28;8791;-69
2022/11/03 13:39:24;;;;;;;;;10.60;10.60;;;;;;;;5185313;28;8854;-69
2022/11/03 13:41:55;;;;;;;;;15.80;15.40;;;;;;;;5184548;28;8811;-69
2022/11/03 13:44:26;;;;;;;;;4.60;4.60;;;;;;;;5183388;28;8784;-68
2022/11/03 13:46:57;;;;;;;;;31.00;29.25;;;;;;;;5183829;28;8784;-70
2022/11/03 13:49:46;;;;;;;;;12.80;12.40;;;;;;;;5183817;28;10887;-70
2022/11/03 13:52:35;;;;;;;;;13.00;10.20;;;;;;;;5184594;28;8788;-70
2022/11/03 13:55:06;;;;;;;;;13.25;13.25;;;;;;;;5184558;28;8838;-70
2022/11/03 13:57:37;;;;;;;;;9.40;9.20;;;;;;;;5188448;28;10690;-70
2022/11/03 14:00:26;;;;;;;;;14.20;14.20;;;;;;;;5199807;28;8784;-70
2022/11/03 14:03:15;;;;;;;;;4.60;4.60;;;;;;;;5187215;28;8808;-69
2022/11/03 14:05:46;;;;;;;;;13.25;13.25;;;;;;;;5203344;28;9571;-69
2022/11/03 14:08:17;;;;;;;;;8.80;8.80;;;;;;;;5196700;28;11467;-70
2022/11/03 14:10:48;;;;;;;;;7.50;7.50;;;;;;;;5204436;28;8766;-70
2022/11/03 14:13:19;;;;;;;;;19.75;19.50;;;;;;;;5186900;28;8794;-69
2022/11/03 14:15:50;;;;;;;;;4.00;4.00;;;;;;;;5203468;28;9028;-70
2022/11/03 14:18:21;;;;;;;;;4.60;4.60;;;;;;;;5201956;28;8806;-70
2022/11/03 14:21:10;;;;;;;;;12.40;11.60;;;;;;;;5204132;28;8896;-69
2022/11/03 14:23:41;;;;;;;;;4.50;4.00;;;;;;;;5203962;28;8985;-70
2022/11/03 14:26:11;;;;;;;;;4.00;4.00;;;;;;;;5203171;28;11382;-70
2022/11/03 14:28:42;;;;;;;;;0.00;0.00;;;;;;;;5203457;28;12140;-70
2022/11/03 14:31:13;;;;;;;;;4.25;4.25;;;;;;;;5186315;28;11425;-71
2022/11/03 14:33:44;;;;;;;;;2.50;2.50;;;;;;;;5203423;28;11453;-71
2022/11/03 14:36:15;;;;;;;;;15.25;15.25;;;;;;;;5202926;28;11428;-71
2022/11/03 14:38:46;;;;;;;;;18.40;17.60;;;;;;;;5217971;28;12233;-70
2022/11/03 14:44:45;;;;;;;;;10.40;10.40;;;;;;;;5189268;28;8933;-70
2022/11/03 14:47:17;;;;;;;;;0.60;0.60;;;;;;;;5204331;28;8805;-70
2022/11/03 14:49:48;;;;;;;;;5.20;5.20;;;;;;;;5186895;28;8789;-71
2022/11/03 14:52:19;;;;;;;;;6.40;6.40;;;;;;;;5273122;27;9671;-70
2022/11/03 14:54:51;;;;;;;;;1.20;1.20;;;;;;;;5205835;28;8802;-70
2022/11/03 14:57:40;;;;;;;;;6.00;6.00;;;;;;;;5199444;28;8822;-70
2022/11/03 15:00:11;;;;;;;;;0.00;0.00;;;;;;;;5202611;28;9520;-70
2022/11/03 15:02:42;;;;;;;;;0.40;0.40;;;;;;;;5202839;28;8793;-70
2022/11/03 15:05:42;;;;;;;;;0.75;0.75;;;;;;;;5202430;28;8796;-70
2022/11/03 15:08:04;;;;;;;;;5.00;5.00;;;;;;;;5202508;28;11417;-70
2022/11/03 15:10:35;;;;;;;;;0.00;0.00;;;;;;;;5203599;28;8785;-70
2022/11/03 15:13:24;;;;;;;;;4.60;4.60;;;;;;;;5188877;28;8793;-70
2022/11/03 15:15:55;;;;;;;;;0.00;0.00;;;;;;;;5181758;28;8804;-70
2022/11/03 15:18:26;;;;;;;;;1.00;1.00;;;;;;;;5181608;28;9818;-71
2022/11/03 15:20:57;;;;;;;;;0.60;0.60;;;;;;;;5181493;28;8956;-69
2022/11/03 15:23:28;;;;;;;;;0.00;0.00;;;;;;;;5191169;28;9651;-69
2022/11/03 15:26:00;;;;;;;;;4.00;4.00;;;;;;;;5180202;28;8792;-68
2022/11/03 15:28:31;;;;;;;;;1.80;1.80;;;;;;;;5166493;28;8834;-68
2022/11/03 15:31:02;;;;;;;;;0.80;0.80;;;;;;;;5179930;28;8868;-68
2022/11/03 15:33:33;;;;;;;;;1.00;1.00;;;;;;;;5187828;28;8813;-70
2022/11/03 15:36:05;;;;;;;;;4.60;4.60;;;;;;;;5221951;27;9202;-70
2022/11/03 15:38:36;;;;;;;;;5.00;5.00;;;;;;;;5203578;28;8814;-70
2022/11/03 15:41:18;;;;;;;;;0.20;0.20;;;;;;;;5220378;28;8823;-71
2022/11/03 15:44:07;;;;;;;;;1.80;1.80;;;;;;;;5206498;28;8894;-69
2022/11/03 15:46:38;;;;;;;;;2.80;2.80;;;;;;;;5204253;28;8930;-69
2022/11/03 15:49:27;;;;;;;;;0.00;0.00;;;;;;;;5200276;28;8826;-70
2022/11/03 15:51:58;;;;;;;;;5.00;5.00;;;;;;;;5219957;27;8771;-70
2022/11/03 15:54:29;;;;;;;;;2.00;2.00;;;;;;;;5200541;28;8866;-70
2022/11/03 15:57:00;;;;;;;;;1.25;1.25;;;;;;;;5183791;28;10320;-70
2022/11/03 15:59:31;;;;;;;;;3.00;3.00;;;;;;;;5183421;28;8801;-70
2022/11/03 16:02:02;;;;;;;;;1.40;1.40;;;;;;;;5166951;28;10225;-70
2022/11/03 16:04:33;;;;;;;;;0.00;0.00;;;;;;;;5201156;28;9513;-69
2022/11/03 16:07:04;;;;;;;;;1.20;1.20;;;;;;;;5183555;28;8786;-71